createdAt,value
2019-01-06T00:01:35.454Z,101228.30
2019-01-06T00:04:25.691Z,101231.28
2019-01-06T00:07:15.128Z,101251.98
2019-01-06T00:10:05.614Z,101237.19
2019-01-06T00:12:49.001Z,101258.49
2019-01-06T00:15:46.136Z,101258.49
2019-01-06T00:18:36.548Z,101252.93
2019-01-06T00:21:46.573Z,101264.87
2019-01-06T00:24:44.426Z,101268.94
2019-01-06T00:27:35.878Z,101268.94
2019-01-06T00:30:27.638Z,101274.73
2019-01-06T00:33:21.345Z,101288.23
2019-01-06T00:36:25.105Z,101288.23
2019-01-06T00:39:16.536Z,101287.77
2019-01-06T00:42:07.613Z,101292.34
2019-01-06T00:44:57.915Z,101301.97
2019-01-06T00:48:01.847Z,101301.97
2019-01-06T00:51:02.501Z,101302.83
2019-01-06T00:54:03.089Z,101304.77
2019-01-06T00:56:53.405Z,101304.77
2019-01-06T00:59:47.526Z,101301.68
2019-01-06T01:02:38.605Z,101306.39
2019-01-06T01:05:28.278Z,101314.61
2019-01-06T01:08:18.451Z,101314.38
2019-01-06T01:11:06.756Z,101316.48
2019-01-06T01:14:09.355Z,101319.75
2019-01-06T01:17:03.748Z,101319.88
2019-01-06T01:19:51.287Z,101327.01
2019-01-06T01:22:42.578Z,101323.87
2019-01-06T01:25:42.917Z,101333.52
2019-01-06T01:28:34.333Z,101333.52
2019-01-06T01:31:38.050Z,101334.59
2019-01-06T01:34:26.459Z,101340.56
2019-01-06T01:37:17.567Z,101342.94
2019-01-06T01:40:07.480Z,101342.59
2019-01-06T01:43:01.527Z,101344.21
2019-01-06T01:45:58.655Z,101347.35
2019-01-06T01:49:05.859Z,101346.72
2019-01-06T01:52:06.424Z,101346.72
2019-01-06T01:54:56.896Z,101346.92
2019-01-06T01:58:00.869Z,101351.42
2019-01-06T02:00:54.446Z,101348.52
2019-01-06T02:04:03.866Z,101353.22
2019-01-06T02:07:04.313Z,101348.36
2019-01-06T02:10:11.553Z,101347.37
2019-01-06T02:13:05.904Z,101353.64
2019-01-06T02:16:15.617Z,101348.44
2019-01-06T02:19:21.796Z,101345.00
2019-01-06T02:22:22.349Z,101342.58
2019-01-06T02:25:13.540Z,101342.66
2019-01-06T02:28:07.462Z,101344.66
2019-01-06T02:31:07.911Z,101339.75
2019-01-06T02:33:58.342Z,101345.43
2019-01-06T02:37:01.721Z,101351.02
2019-01-06T02:39:50.420Z,101353.14
2019-01-06T02:42:40.625Z,101361.58
2019-01-06T02:45:34.827Z,101357.44
2019-01-06T02:48:25.633Z,101367.26
2019-01-06T02:51:08.891Z,101367.91
2019-01-06T02:54:00.341Z,101367.91
2019-01-06T02:57:04.089Z,101377.49
2019-01-06T02:59:54.340Z,101376.71
2019-01-06T03:02:57.630Z,101374.14
2019-01-06T03:05:44.342Z,101375.15
2019-01-06T03:08:34.339Z,101375.15
2019-01-06T03:11:25.596Z,101370.99
2019-01-06T03:14:29.114Z,101363.56
2019-01-06T03:17:13.900Z,101363.56
2019-01-06T03:20:17.319Z,101367.22
2019-01-06T03:23:08.006Z,101372.00
2019-01-06T03:26:05.572Z,101370.84
2019-01-06T03:28:55.333Z,101353.01
2019-01-06T03:31:52.881Z,101353.01
2019-01-06T03:34:40.329Z,101372.00
2019-01-06T03:37:31.500Z,101373.49
2019-01-06T03:40:22.000Z,101369.30
2019-01-06T03:43:15.111Z,101370.44
2019-01-06T03:46:09.364Z,101378.99
2019-01-06T03:48:59.503Z,101371.92
2019-01-06T03:51:50.611Z,101374.28
2019-01-06T03:54:40.855Z,101378.78
2019-01-06T03:57:43.830Z,101378.78
2019-01-06T04:00:34.346Z,101378.84
2019-01-06T04:03:37.646Z,101386.25
2019-01-06T04:06:35.105Z,101390.85
2019-01-06T04:09:43.019Z,101390.85
2019-01-06T04:12:40.330Z,101384.33
2019-01-06T04:15:29.405Z,101396.27
2019-01-06T04:18:25.069Z,101387.92
2019-01-06T04:21:23.098Z,101392.89
2019-01-06T04:24:14.532Z,101392.86
2019-01-06T04:27:17.822Z,101392.27
2019-01-06T04:30:14.966Z,101392.42
2019-01-06T04:33:05.523Z,101392.13
2019-01-06T04:35:59.506Z,101388.41
2019-01-06T04:38:56.505Z,101388.41
2019-01-06T04:41:47.553Z,101406.53
2019-01-06T04:44:50.564Z,101410.81
2019-01-06T04:47:45.361Z,101414.38
2019-01-06T04:50:42.741Z,101414.38
2019-01-06T04:53:48.824Z,101426.37
2019-01-06T04:56:49.020Z,101427.57
2019-01-06T04:59:39.339Z,101430.06
2019-01-06T05:02:29.806Z,101435.42
2019-01-06T05:05:22.820Z,101429.94
2019-01-06T05:08:12.731Z,101430.91
2019-01-06T05:11:13.465Z,101440.05
2019-01-06T05:14:20.336Z,101441.48
2019-01-06T05:17:10.931Z,101442.73
2019-01-06T05:20:01.904Z,101447.19
2019-01-06T05:22:52.340Z,101444.94
2019-01-06T05:25:43.358Z,101452.91
2019-01-06T05:28:37.573Z,101452.95
2019-01-06T05:31:31.610Z,101447.12
2019-01-06T05:34:28.423Z,101440.63
2019-01-06T05:37:22.608Z,101440.63
2019-01-06T05:40:15.102Z,101454.75
2019-01-06T05:43:07.397Z,101454.75
2019-01-06T05:46:04.665Z,101453.96
2019-01-06T05:48:53.636Z,101461.24
2019-01-06T05:51:43.891Z,101471.34
2019-01-06T05:54:50.331Z,101480.23
2019-01-06T05:57:41.567Z,101473.83
2019-01-06T06:00:51.514Z,101471.20
2019-01-06T06:03:53.732Z,101470.86
2019-01-06T06:06:37.434Z,101469.41
2019-01-06T06:09:26.914Z,101464.82
2019-01-06T06:12:18.409Z,101466.06
2019-01-06T06:15:09.550Z,101470.03
2019-01-06T06:18:05.559Z,101475.58
2019-01-06T06:20:55.674Z,101477.52
2019-01-06T06:23:55.545Z,101476.78
2019-01-06T06:26:45.785Z,101476.80
2019-01-06T06:29:49.848Z,101476.80
2019-01-06T06:32:53.424Z,101480.47
2019-01-06T06:35:43.494Z,101484.55
2019-01-06T06:38:34.008Z,101484.52
2019-01-06T06:41:38.044Z,101491.13
2019-01-06T06:44:29.596Z,101496.52
2019-01-06T06:47:20.540Z,101501.97
2019-01-06T06:50:26.892Z,101501.97
2019-01-06T06:53:21.520Z,101508.95
2019-01-06T06:56:12.332Z,101513.84
2019-01-06T06:59:19.496Z,101513.66
2019-01-06T07:03:10.061Z,101516.00
2019-01-06T07:06:05.761Z,101519.16
2019-01-06T07:08:56.899Z,101519.61
2019-01-06T07:12:00.330Z,101525.77
2019-01-06T07:14:44.533Z,101527.20
2019-01-06T07:18:09.964Z,101529.69
2019-01-06T07:21:07.288Z,101537.11
2019-01-06T07:23:55.553Z,101537.11
2019-01-06T07:27:02.852Z,101541.56
2019-01-06T07:29:52.647Z,101537.66
2019-01-06T07:32:46.694Z,101496.37
2019-01-06T07:35:50.113Z,101542.73
2019-01-06T07:38:40.498Z,101542.73
2019-01-06T07:41:31.818Z,101548.25
2019-01-06T07:44:28.890Z,101557.25
2019-01-06T07:47:19.345Z,101557.75
2019-01-06T07:50:11.577Z,101555.81
2019-01-06T07:53:21.530Z,101554.88
2019-01-06T07:56:11.632Z,101554.88
2019-01-06T07:59:01.117Z,101565.59
2019-01-06T08:01:51.484Z,101565.59
2019-01-06T08:04:41.502Z,101569.13
2019-01-06T08:07:31.810Z,101566.63
2019-01-06T08:10:21.841Z,101573.51
2019-01-06T08:13:11.767Z,101576.28
2019-01-06T08:16:20.412Z,101577.73
2019-01-06T08:19:14.584Z,101579.81
2019-01-06T08:22:10.738Z,101572.10
2019-01-06T08:25:04.291Z,101572.10
2019-01-06T08:27:54.773Z,101581.45
2019-01-06T08:30:44.709Z,101580.59
2019-01-06T08:33:33.764Z,101584.95
2019-01-06T08:36:31.000Z,101587.95
2019-01-06T08:39:21.423Z,101586.38
2019-01-06T08:42:15.893Z,101598.72
2019-01-06T08:45:25.351Z,101598.72
2019-01-06T08:48:19.475Z,101604.91
2019-01-06T08:51:16.625Z,101606.36
2019-01-06T08:54:06.688Z,101604.34
2019-01-06T08:56:57.617Z,101587.90
2019-01-06T09:00:07.585Z,101599.30
2019-01-06T09:02:57.337Z,101591.97
2019-01-06T09:05:47.791Z,101591.97
2019-01-06T09:08:52.106Z,101608.98
2019-01-06T09:11:49.894Z,101615.89
2019-01-06T09:14:40.524Z,101617.06
2019-01-06T09:17:34.423Z,101620.63
2019-01-06T09:20:35.326Z,101619.80
2019-01-06T09:23:35.709Z,101618.89
2019-01-06T09:26:40.518Z,101622.80
2019-01-06T09:29:32.413Z,101606.59
2019-01-06T09:32:24.299Z,101606.59
2019-01-06T09:35:15.453Z,101626.77
2019-01-06T09:38:23.145Z,101619.86
2019-01-06T09:41:17.666Z,101625.38
2019-01-06T09:44:06.613Z,101627.69
2019-01-06T09:46:56.760Z,101626.56
2019-01-06T09:49:55.962Z,101623.56
2019-01-06T09:52:49.860Z,101625.77
2019-01-06T09:55:50.092Z,101622.48
2019-01-06T09:58:50.540Z,101619.33
2019-01-06T10:01:40.718Z,101619.39
2019-01-06T10:04:34.960Z,101625.45
2019-01-06T10:07:33.748Z,101625.89
2019-01-06T10:10:24.931Z,101616.23
2019-01-06T10:13:15.580Z,101622.06
2019-01-06T10:16:05.872Z,101620.56
2019-01-06T10:19:06.096Z,101620.56
2019-01-06T10:21:57.528Z,101619.94
2019-01-06T10:24:58.083Z,101617.91
2019-01-06T10:28:03.792Z,101622.27
2019-01-06T10:31:02.274Z,101620.91
2019-01-06T10:33:57.787Z,101620.47
2019-01-06T10:36:47.461Z,101617.47
2019-01-06T10:39:35.101Z,101617.70
2019-01-06T10:42:41.552Z,101614.62
2019-01-06T10:45:37.823Z,101618.70
2019-01-06T10:48:34.335Z,101615.20
2019-01-06T10:51:34.341Z,101620.41
2019-01-06T10:54:34.583Z,101619.89
2019-01-06T10:57:27.324Z,101616.03
2019-01-06T11:00:24.943Z,101616.03
2019-01-06T11:03:40.588Z,101622.67
2019-01-06T11:06:35.024Z,101602.65
2019-01-06T11:09:25.615Z,101602.65
2019-01-06T11:12:32.334Z,101613.78
2019-01-06T11:15:23.331Z,101614.23
2019-01-06T11:18:13.742Z,101615.14
2019-01-06T11:21:06.688Z,101621.57
2019-01-06T11:23:59.821Z,101612.65
2019-01-06T11:26:49.789Z,101616.66
2019-01-06T11:29:52.312Z,101611.62
2019-01-06T11:32:44.845Z,101605.97
2019-01-06T11:35:38.911Z,101607.89
2019-01-06T11:38:33.016Z,101602.47
2019-01-06T11:41:38.976Z,101602.47
2019-01-06T11:44:39.694Z,101601.02
2019-01-06T11:47:26.778Z,101597.69
2019-01-06T11:50:18.335Z,101600.62
2019-01-06T11:53:21.524Z,101604.56
2019-01-06T11:56:09.909Z,101600.56
2019-01-06T11:59:21.358Z,101598.34
2019-01-06T12:02:24.213Z,101605.01
2019-01-06T12:05:21.598Z,101603.08
2019-01-06T12:08:21.578Z,101586.98
2019-01-06T12:11:25.814Z,101593.89
2019-01-06T12:14:27.016Z,101593.89
2019-01-06T12:17:17.318Z,101593.80
2019-01-06T12:20:14.501Z,101598.09
2019-01-06T12:23:15.646Z,101587.14
2019-01-06T12:26:05.963Z,101591.38
2019-01-06T12:28:56.516Z,101591.38
2019-01-06T12:31:46.618Z,101591.43
2019-01-06T12:34:56.815Z,101596.42
2019-01-06T12:37:58.100Z,101596.42
2019-01-06T12:41:01.950Z,101597.49
2019-01-06T12:43:52.092Z,101597.21
2019-01-06T12:46:42.804Z,101598.28
2019-01-06T12:49:33.878Z,101598.00
2019-01-06T12:52:28.331Z,101605.36
2019-01-06T12:55:19.473Z,101603.65
2019-01-06T12:58:11.369Z,101606.08
2019-01-06T13:01:11.725Z,101603.88
2019-01-06T13:04:15.662Z,101605.48
2019-01-06T13:07:18.565Z,101601.52
2019-01-06T13:10:22.454Z,101602.89
2019-01-06T13:13:36.555Z,101602.89
2019-01-06T13:16:38.011Z,101604.81
2019-01-06T13:19:32.346Z,101609.89
2019-01-06T13:22:22.527Z,101611.25
2019-01-06T13:25:13.641Z,101614.08
2019-01-06T13:28:13.166Z,101610.34
2019-01-06T13:31:01.905Z,101610.34
2019-01-06T13:33:52.783Z,101615.95
2019-01-06T13:36:43.332Z,101620.56
2019-01-06T13:39:33.815Z,101625.38
2019-01-06T13:42:25.090Z,101627.17
2019-01-06T13:45:15.357Z,101633.72
2019-01-06T13:48:12.357Z,101629.79
2019-01-06T13:51:06.342Z,101633.74
2019-01-06T13:54:13.358Z,101631.41
2019-01-06T13:57:03.710Z,101632.12
2019-01-06T13:59:52.954Z,101636.33
2019-01-06T14:02:56.536Z,101631.18
2019-01-06T14:05:56.335Z,101628.36
2019-01-06T14:08:59.603Z,101629.66
2019-01-06T14:11:59.758Z,101634.17
2019-01-06T14:15:01.983Z,101634.17
2019-01-06T14:17:53.520Z,101637.73
2019-01-06T14:20:50.305Z,101639.00
2019-01-06T14:23:41.430Z,101642.63
2019-01-06T14:26:48.279Z,101639.56
2019-01-06T14:29:39.504Z,101643.70
2019-01-06T14:32:29.654Z,101654.23
2019-01-06T14:35:23.327Z,101639.77
2019-01-06T14:38:13.560Z,101639.77
2019-01-06T14:40:58.813Z,101643.33
2019-01-06T14:43:49.792Z,101644.77
2019-01-06T14:46:48.359Z,101639.38
2019-01-06T14:49:38.097Z,101642.61
2019-01-06T14:52:28.415Z,101654.75
2019-01-06T14:55:25.444Z,101647.47
2019-01-06T14:58:12.335Z,101650.09
2019-01-06T15:01:09.555Z,101644.31
2019-01-06T15:04:00.476Z,101649.59
2019-01-06T15:06:51.009Z,101656.83
2019-01-06T15:09:41.818Z,101656.33
2019-01-06T15:12:32.521Z,101655.00
2019-01-06T15:15:26.727Z,101658.73
2019-01-06T15:18:15.282Z,101654.65
2019-01-06T15:21:09.523Z,101654.96
2019-01-06T15:24:06.286Z,101652.52
2019-01-06T15:26:56.563Z,101652.52
2019-01-06T15:29:53.485Z,101651.52
2019-01-06T15:32:44.581Z,101644.08
2019-01-06T15:35:40.069Z,101636.63
2019-01-06T15:38:29.782Z,101636.63
2019-01-06T15:41:23.136Z,101649.23
2019-01-06T15:44:14.522Z,101652.36
2019-01-06T15:47:04.329Z,101655.03
2019-01-06T15:49:58.338Z,101659.67
2019-01-06T15:52:55.540Z,101655.23
2019-01-06T15:55:45.495Z,101658.73
2019-01-06T15:58:39.375Z,101652.57
2019-01-06T16:01:48.953Z,101656.17
2019-01-06T16:04:44.780Z,101658.56
2019-01-06T16:07:34.930Z,101660.74
2019-01-06T16:10:29.581Z,101659.42
2019-01-06T16:13:20.004Z,101657.89
2019-01-06T16:16:17.528Z,101657.89
2019-01-06T16:19:10.881Z,101662.55
2019-01-06T16:22:01.643Z,101665.47
2019-01-06T16:24:50.965Z,101671.06
2019-01-06T16:28:00.993Z,101665.56
2019-01-06T16:30:52.334Z,101664.70
2019-01-06T16:33:46.029Z,101670.18
2019-01-06T16:36:40.901Z,101674.83
2019-01-06T16:39:45.045Z,101675.90
2019-01-06T16:42:39.575Z,101688.02
2019-01-06T16:45:30.555Z,101685.02
2019-01-06T16:48:31.011Z,101685.02
2019-01-06T16:51:28.385Z,101689.81
2019-01-06T16:55:31.626Z,101690.29
2019-01-06T16:58:37.837Z,101688.63
2019-01-06T17:01:24.549Z,101685.45
2019-01-06T17:04:12.336Z,101690.07
2019-01-06T17:06:54.059Z,101690.07
2019-01-06T17:09:46.391Z,101683.22
2019-01-06T17:12:40.479Z,101681.93
2019-01-06T17:15:32.354Z,101680.06
2019-01-06T17:18:22.553Z,101675.98
2019-01-06T17:21:12.367Z,101681.49
2019-01-06T17:24:02.346Z,101675.68
2019-01-06T17:26:52.469Z,101674.48
2019-01-06T17:29:55.531Z,101678.47
2019-01-06T17:32:46.651Z,101677.11
2019-01-06T17:35:40.327Z,101667.73
2019-01-06T17:38:33.834Z,101667.73
2019-01-06T17:41:43.503Z,101676.83
2019-01-06T17:44:33.870Z,101677.30
2019-01-06T17:47:32.355Z,101674.14
2019-01-06T17:50:27.498Z,101679.48
2019-01-06T17:53:41.417Z,101677.84
2019-01-06T17:56:27.361Z,101674.80
2019-01-06T17:59:30.995Z,101679.27
2019-01-06T18:02:28.435Z,101680.03
2019-01-06T18:05:18.405Z,101690.40
2019-01-06T18:08:21.830Z,101684.61
2019-01-06T18:11:17.838Z,101693.05
2019-01-06T18:14:11.884Z,101694.02
2019-01-06T18:17:01.752Z,101700.59
2019-01-06T18:20:00.779Z,101700.95
2019-01-06T18:23:00.295Z,101690.11
2019-01-06T18:25:57.765Z,101695.67
2019-01-06T18:28:53.782Z,101694.03
2019-01-06T18:31:43.422Z,101691.06
2019-01-06T18:34:31.698Z,101693.20
2019-01-06T18:37:34.374Z,101695.78
2019-01-06T18:40:25.104Z,101695.78
2019-01-06T18:43:25.432Z,101693.11
2019-01-06T18:46:15.787Z,101687.69
2019-01-06T18:48:57.834Z,101695.90
2019-01-06T18:51:47.608Z,101696.01
2019-01-06T18:54:37.623Z,101689.98
2019-01-06T18:57:31.342Z,101678.42
2019-01-06T19:00:22.357Z,101678.42
2019-01-06T19:03:20.461Z,101688.08
2019-01-06T19:06:27.109Z,101687.30
2019-01-06T19:09:24.603Z,101687.01
2019-01-06T19:12:09.861Z,101683.83
2019-01-06T19:15:19.577Z,101683.83
2019-01-06T19:18:17.262Z,101689.17
2019-01-06T19:21:03.339Z,101689.17
2019-01-06T19:23:54.456Z,101691.13
2019-01-06T19:26:44.365Z,101691.50
2019-01-06T19:29:29.477Z,101689.73
2019-01-06T19:32:19.504Z,101692.14
2019-01-06T19:35:09.434Z,101688.49
2019-01-06T19:38:13.327Z,101694.11
2019-01-06T19:41:16.853Z,101697.31
2019-01-06T19:44:10.639Z,101696.93
2019-01-06T19:47:16.285Z,101699.87
2019-01-06T19:50:06.305Z,101697.00
2019-01-06T19:52:56.485Z,101696.88
2019-01-06T19:55:47.418Z,101699.37
2019-01-06T19:58:53.490Z,101693.34
2019-01-06T20:01:46.248Z,101698.99
2019-01-06T20:04:41.332Z,101704.42
2019-01-06T20:07:31.593Z,101696.41
2019-01-06T20:10:22.325Z,101695.17
2019-01-06T20:13:23.317Z,101695.17
2019-01-06T20:16:26.384Z,101703.79
2019-01-06T20:19:11.841Z,101707.64
2019-01-06T20:22:02.818Z,101707.92
2019-01-06T20:24:59.530Z,101710.19
2019-01-06T20:27:59.397Z,101706.05
2019-01-06T20:31:03.400Z,101701.76
2019-01-06T20:33:57.352Z,101707.59
2019-01-06T20:37:13.041Z,101704.75
2019-01-06T20:40:05.001Z,101704.31
2019-01-06T20:43:03.445Z,101701.59
2019-01-06T20:45:57.515Z,101711.03
2019-01-06T20:48:45.747Z,101709.40
2019-01-06T20:51:37.604Z,101709.40
2019-01-06T20:54:31.316Z,101708.95
2019-01-06T20:57:21.447Z,101706.86
2019-01-06T21:00:11.703Z,101705.44
2019-01-06T21:03:13.272Z,101705.50
2019-01-06T21:06:03.544Z,101705.91
2019-01-06T21:08:53.531Z,101688.08
2019-01-06T21:11:45.404Z,101688.08
2019-01-06T21:14:42.749Z,101700.23
2019-01-06T21:17:32.302Z,101700.08
2019-01-06T21:20:19.325Z,101704.59
2019-01-06T21:23:10.020Z,101700.91
2019-01-06T21:26:01.108Z,101698.32
2019-01-06T21:28:57.980Z,101700.23
2019-01-06T21:31:55.524Z,101705.05
2019-01-06T21:34:47.667Z,101715.23
2019-01-06T21:37:48.632Z,101715.23
2019-01-06T21:40:42.340Z,101688.28
2019-01-06T21:43:32.326Z,101688.28
2019-01-06T21:46:32.770Z,101709.73
2019-01-06T21:49:22.531Z,101709.75
2019-01-06T21:52:12.631Z,101707.87
2019-01-06T21:55:06.517Z,101708.60
2019-01-06T21:57:57.571Z,101708.60
2019-01-06T22:00:47.585Z,101695.10
2019-01-06T22:03:44.833Z,101696.73
2019-01-06T22:06:38.520Z,101696.73
2019-01-06T22:09:32.839Z,101705.56
2019-01-06T22:12:23.716Z,101705.56
2019-01-06T22:15:17.318Z,101706.56
2019-01-06T22:18:07.342Z,101701.03
2019-01-06T22:21:09.891Z,101698.42
2019-01-06T22:24:11.729Z,101697.59
2019-01-06T22:27:00.448Z,101692.78
2019-01-06T22:29:51.293Z,101690.75
2019-01-06T22:32:50.305Z,101689.39
2019-01-06T22:35:32.306Z,101681.91
2019-01-06T22:38:35.004Z,101685.88
2019-01-06T22:41:19.306Z,101678.92
2019-01-06T22:44:25.497Z,101685.98
2019-01-06T22:47:15.795Z,101679.48
2019-01-06T22:50:24.524Z,101686.61
2019-01-06T22:53:14.370Z,101685.09
2019-01-06T22:56:07.718Z,101685.26
2019-01-06T22:59:03.379Z,101683.33
2019-01-06T23:01:53.694Z,101678.47
2019-01-06T23:04:42.051Z,101676.38
2019-01-06T23:07:32.333Z,101678.52
2019-01-06T23:10:21.505Z,101681.74
2019-01-06T23:13:18.050Z,101684.17
2019-01-06T23:16:17.758Z,101679.88
2019-01-06T23:19:20.882Z,101680.63
2019-01-06T23:22:29.777Z,101676.94
2019-01-06T23:25:26.318Z,101677.67
2019-01-06T23:28:26.573Z,101686.79
2019-01-06T23:31:29.302Z,101667.86
2019-01-06T23:34:11.778Z,101667.86
2019-01-06T23:37:05.325Z,101686.45
2019-01-06T23:39:58.757Z,101685.09
2019-01-06T23:42:49.041Z,101688.08
2019-01-06T23:45:48.753Z,101685.59
2019-01-06T23:48:33.448Z,101691.48
2019-01-06T23:51:12.309Z,101687.30
2019-01-06T23:54:11.265Z,101688.37
2019-01-06T23:57:07.307Z,101687.86
